Time;durP1;ratioP1;P1;durP2;ratioP2;P2;SDS_P1;SDS_P2;PMS_P1;PMS_P2;Temp;Humidity;BMP_temperature;BMP_pressure;BME280_temperature;BME280_humidity;BME280_pressure;Samples;Min_cycle;Max_cycle;Signal;HPM_P1;HPM_P2
2021/01/25 00:02:18;;;;;;;32.20;16.15;;;;;;;4.43;62.98;98188.88;5045803;28;20045;-68
2021/01/25 00:04:45;;;;;;;27.00;15.43;;;;;;;4.44;63.05;98189.69;5042614;28;20084;-69
2021/01/25 00:07:11;;;;;;;27.77;16.10;;;;;;;4.41;62.96;98185.50;5042710;28;20132;-66
2021/01/25 00:09:38;;;;;;;27.25;14.88;;;;;;;4.43;63.08;98186.25;5040393;28;20049;-68
2021/01/25 00:12:05;;;;;;;29.67;16.10;;;;;;;4.47;62.87;98189.44;5042535;28;20055;-68
2021/01/25 00:14:31;;;;;;;24.73;13.27;;;;;;;4.52;62.80;98192.50;5043604;28;20454;-68
2021/01/25 00:17:00;;;;;;;25.25;13.57;;;;;;;4.55;62.68;98189.63;5042111;28;20155;-72
2021/01/25 00:19:26;;;;;;;30.02;15.10;;;;;;;4.61;62.58;98189.16;5042630;28;20131;-71
2021/01/25 00:21:53;;;;;;;25.67;15.07;;;;;;;4.65;62.30;98192.34;5043416;28;20128;-69
2021/01/25 00:24:19;;;;;;;26.35;14.10;;;;;;;4.65;62.44;98190.56;5025062;28;20436;-66
2021/01/25 00:26:45;;;;;;;30.73;14.88;;;;;;;4.68;62.43;98187.72;5043950;28;20045;-67
2021/01/25 00:29:12;;;;;;;20.95;12.23;;;;;;;4.70;62.15;98190.19;5043982;28;20424;-67
2021/01/25 00:31:39;;;;;;;24.80;13.40;;;;;;;4.75;62.15;98188.00;5043097;28;20040;-67
2021/01/25 00:34:07;;;;;;;27.98;13.85;;;;;;;4.74;62.14;98192.44;5042914;28;20044;-66
2021/01/25 00:36:33;;;;;;;28.73;15.02;;;;;;;4.77;62.21;98188.72;5044406;28;20080;-72
2021/01/25 00:39:00;;;;;;;31.35;14.88;;;;;;;4.79;62.12;98194.69;5041172;28;20144;-69
2021/01/25 00:41:26;;;;;;;23.58;12.70;;;;;;;4.84;61.88;98199.53;5042866;28;20048;-70
2021/01/25 00:43:52;;;;;;;32.15;15.50;;;;;;;4.86;61.84;98197.59;5045382;28;20049;-68
2021/01/25 00:46:19;;;;;;;26.90;14.70;;;;;;;4.87;61.81;98200.09;5043463;28;20052;-67
2021/01/25 00:48:46;;;;;;;28.02;14.30;;;;;;;4.87;61.79;98194.03;5044069;28;20068;-72
2021/01/25 00:51:13;;;;;;;25.40;13.65;;;;;;;4.83;61.72;98197.88;5044406;28;20131;-69
2021/01/25 00:53:39;;;;;;;25.52;13.45;;;;;;;4.81;61.95;98212.84;5043251;28;20055;-68
2021/01/25 00:56:06;;;;;;;23.02;12.77;;;;;;;4.84;62.00;98215.22;5042568;28;20102;-68
2021/01/25 00:58:32;;;;;;;23.70;13.43;;;;;;;4.84;61.80;98213.41;5043935;28;20057;-67
2021/01/25 01:00:59;;;;;;;28.35;14.23;;;;;;;4.82;61.89;98222.34;5042767;28;20103;-68
2021/01/25 01:03:25;;;;;;;23.42;11.98;;;;;;;4.87;61.78;98220.19;5042960;28;20041;-68
2021/01/25 01:05:52;;;;;;;29.27;14.77;;;;;;;4.86;61.67;98221.16;5043324;28;20141;-69
2021/01/25 01:08:19;;;;;;;23.38;13.13;;;;;;;4.86;61.72;98222.00;5043619;28;20056;-68
2021/01/25 01:10:46;;;;;;;21.80;11.13;;;;;;;4.87;61.79;98231.47;5041618;28;20041;-69
2021/01/25 01:13:12;;;;;;;24.38;13.05;;;;;;;4.90;61.56;98238.28;5043395;28;20060;-67
2021/01/25 01:15:39;;;;;;;18.63;10.48;;;;;;;4.88;61.50;98230.53;5044547;28;20052;-67
2021/01/25 01:18:05;;;;;;;20.50;9.60;;;;;;;4.86;61.75;98239.44;5043539;28;20049;-70
2021/01/25 01:20:32;;;;;;;18.30;9.27;;;;;;;4.85;61.72;98237.81;5043708;28;20701;-68
2021/01/25 01:22:59;;;;;;;19.85;10.23;;;;;;;4.86;61.60;98231.59;5044070;28;20045;-67
2021/01/25 01:25:26;;;;;;;19.08;10.02;;;;;;;4.88;61.60;98229.69;5043325;28;20049;-68
2021/01/25 01:27:52;;;;;;;20.35;11.10;;;;;;;4.87;61.55;98236.72;5044357;28;20412;-68
2021/01/25 01:30:19;;;;;;;16.77;11.20;;;;;;;4.88;61.64;98229.69;5043923;28;20053;-69
2021/01/25 01:32:45;;;;;;;22.50;11.43;;;;;;;4.89;61.65;98226.13;5045117;28;20049;-71
2021/01/25 01:35:12;;;;;;;21.55;11.10;;;;;;;4.89;61.56;98226.97;5043746;28;20056;-68
2021/01/25 01:37:38;;;;;;;17.38;10.68;;;;;;;4.95;61.60;98230.84;5044953;28;20049;-70
2021/01/25 01:40:08;;;;;;;21.35;10.27;;;;;;;4.95;61.56;98228.25;5043471;28;20144;-66
2021/01/25 01:42:37;;;;;;;21.02;11.48;;;;;;;4.97;61.66;98232.41;5044790;28;20128;-67
2021/01/25 01:45:07;;;;;;;19.50;10.60;;;;;;;5.03;61.28;98238.91;5056048;28;20049;-66
2021/01/25 01:47:35;;;;;;;17.65;11.15;;;;;;;5.04;61.19;98234.50;5061300;28;20052;-65
2021/01/25 01:50:04;;;;;;;17.38;10.90;;;;;;;5.04;61.23;98237.97;5057673;28;20045;-65
2021/01/25 01:52:33;;;;;;;20.15;12.20;;;;;;;5.02;61.25;98237.25;5059671;28;20045;-69
2021/01/25 01:55:01;;;;;;;23.40;12.40;;;;;;;5.00;61.31;98233.94;5057352;28;20033;-68
2021/01/25 01:57:29;;;;;;;21.25;11.82;;;;;;;4.99;61.33;98227.06;5061396;28;20104;-70
2021/01/25 01:59:56;;;;;;;22.95;12.43;;;;;;;5.01;61.36;98230.38;5063867;28;20044;-69
2021/01/25 02:02:23;;;;;;;21.13;11.75;;;;;;;5.04;61.35;98235.34;5057842;28;20041;-68
2021/01/25 02:04:50;;;;;;;22.80;12.60;;;;;;;5.05;61.09;98225.72;5060930;28;20045;-68
2021/01/25 02:07:17;;;;;;;18.15;11.48;;;;;;;5.04;61.13;98230.13;5061850;28;20113;-68
2021/01/25 02:09:47;;;;;;;19.27;11.27;;;;;;;5.02;61.40;98232.00;5061243;28;20048;-68
2021/01/25 02:12:15;;;;;;;22.58;13.63;;;;;;;4.98;61.29;98228.00;5064115;28;20049;-69
2021/01/25 02:14:42;;;;;;;29.50;15.02;;;;;;;4.95;61.43;98230.84;5066175;28;20044;-66
2021/01/25 02:17:12;;;;;;;42.85;19.70;;;;;;;5.00;61.37;98233.94;5066539;28;20049;-65
2021/01/25 02:19:43;;;;;;;41.92;19.38;;;;;;;5.03;61.13;98235.47;5065191;28;20281;-64
2021/01/25 02:22:27;;;;;;;29.60;17.35;;;;;;;5.07;61.29;98240.31;5049316;28;20048;-67
2021/01/25 02:25:03;;;;;;;26.67;14.07;;;;;;;5.09;61.31;98234.97;5049521;28;20099;-67
2021/01/25 02:27:35;;;;;;;26.05;12.98;;;;;;;5.11;61.03;98235.66;5050672;28;20526;-67
2021/01/25 02:30:04;;;;;;;20.67;12.07;;;;;;;5.13;61.03;98237.22;5049736;28;20052;-68
2021/01/25 02:32:32;;;;;;;21.42;12.05;;;;;;;5.15;60.92;98232.69;5050182;28;20048;-68
2021/01/25 02:35:01;;;;;;;21.10;11.95;;;;;;;5.14;60.98;98238.84;5050491;28;20051;-68
2021/01/25 02:37:28;;;;;;;20.88;10.95;;;;;;;5.15;61.08;98237.91;5050417;28;20072;-68
2021/01/25 02:39:56;;;;;;;18.75;10.32;;;;;;;5.16;60.79;98239.56;5048601;28;20621;-67
2021/01/25 02:42:24;;;;;;;22.77;13.00;;;;;;;5.13;60.79;98238.97;5048535;28;20416;-70
2021/01/25 02:44:52;;;;;;;17.92;11.27;;;;;;;5.09;60.87;98237.59;5049594;28;20048;-69
2021/01/25 02:47:19;;;;;;;18.80;11.43;;;;;;;5.09;60.99;98237.59;5050127;28;20146;-66
2021/01/25 02:49:46;;;;;;;23.95;13.45;;;;;;;5.02;60.90;98237.25;5047734;28;20139;-68
2021/01/25 02:52:14;;;;;;;20.60;12.82;;;;;;;4.97;61.08;98239.44;5047382;28;20041;-66
2021/01/25 02:54:41;;;;;;;20.20;12.75;;;;;;;4.95;61.08;98242.16;5048009;28;20052;-67
2021/01/25 02:57:09;;;;;;;24.10;14.10;;;;;;;4.91;61.21;98239.91;5046831;28;20053;-68
2021/01/25 02:59:38;;;;;;;18.25;11.52;;;;;;;4.85;61.43;98241.25;5048260;28;20045;-68
2021/01/25 03:02:07;;;;;;;18.92;11.18;;;;;;;4.78;61.49;98232.25;5047996;28;20095;-66
2021/01/25 03:04:34;;;;;;;30.02;13.43;;;;;;;4.77;61.47;98236.66;5046491;28;20049;-68
2021/01/25 03:07:01;;;;;;;21.27;12.80;;;;;;;4.78;61.30;98240.91;5046393;28;20057;-66
2021/01/25 03:09:28;;;;;;;24.15;12.77;;;;;;;4.77;61.29;98243.63;5045818;28;20098;-68
2021/01/25 03:11:57;;;;;;;24.30;13.70;;;;;;;4.78;61.12;98250.53;5045876;28;20424;-67
2021/01/25 03:14:24;;;;;;;22.15;14.70;;;;;;;4.76;61.20;98245.44;5047376;28;20053;-68
2021/01/25 03:16:51;;;;;;;19.30;13.25;;;;;;;4.81;61.02;98254.69;5047296;28;20642;-67
2021/01/25 03:19:19;;;;;;;23.42;13.25;;;;;;;4.86;61.18;98248.16;5046018;28;20110;-66
2021/01/25 03:21:47;;;;;;;20.73;12.18;;;;;;;4.89;61.05;98254.91;5045936;28;20052;-69
2021/01/25 03:24:13;;;;;;;23.35;12.55;;;;;;;4.92;60.97;98252.06;5047737;28;20049;-67
2021/01/25 03:26:40;;;;;;;21.08;12.80;;;;;;;4.92;60.97;98255.50;5046049;28;20056;-68
2021/01/25 03:29:07;;;;;;;21.75;12.27;;;;;;;4.91;60.99;98255.59;5046278;28;20562;-66
2021/01/25 03:31:33;;;;;;;21.75;12.52;;;;;;;4.92;61.04;98258.09;5046374;28;20144;-67
2021/01/25 03:34:00;;;;;;;20.95;10.43;;;;;;;4.92;61.12;98252.88;5027377;28;20045;-67
2021/01/25 03:36:27;;;;;;;18.73;12.40;;;;;;;4.89;61.18;98254.91;5045361;28;20763;-67
2021/01/25 03:38:54;;;;;;;19.52;13.10;;;;;;;4.86;61.26;98256.00;5044680;28;20444;-66
2021/01/25 03:41:20;;;;;;;23.80;13.15;;;;;;;4.88;61.17;98261.09;5046140;28;20175;-68
2021/01/25 03:43:46;;;;;;;23.77;14.77;;;;;;;4.89;61.17;98262.75;5045590;28;20049;-65
2021/01/25 03:46:13;;;;;;;23.80;12.60;;;;;;;4.92;61.03;98262.50;5046058;28;20049;-66
2021/01/25 03:48:39;;;;;;;24.42;12.98;;;;;;;4.89;60.98;98262.75;5046352;28;20044;-65
2021/01/25 03:51:06;;;;;;;19.63;12.23;;;;;;;4.90;61.15;98267.03;5046345;28;20049;-66
2021/01/25 03:53:33;;;;;;;23.17;13.02;;;;;;;4.98;61.04;98272.47;5044631;28;20045;-67
2021/01/25 03:56:00;;;;;;;24.13;12.93;;;;;;;4.97;60.88;98269.03;5045196;28;20102;-68
2021/01/25 03:58:27;;;;;;;19.35;13.45;;;;;;;4.94;60.98;98284.97;5045160;28;20089;-67
2021/01/25 04:00:53;;;;;;;22.98;14.30;;;;;;;4.93;61.04;98285.09;5044061;28;20057;-67
2021/01/25 04:03:20;;;;;;;19.73;12.80;;;;;;;4.93;61.11;98280.72;5045496;28;20480;-68
2021/01/25 04:05:47;;;;;;;20.52;11.52;;;;;;;4.89;61.16;98287.13;5045382;28;20045;-67
2021/01/25 04:08:14;;;;;;;22.83;12.00;;;;;;;4.90;61.11;98285.34;5027525;28;20045;-66
2021/01/25 04:10:42;;;;;;;20.67;11.63;;;;;;;4.89;61.05;98281.06;5042988;28;20045;-66
2021/01/25 04:13:09;;;;;;;21.02;11.95;;;;;;;4.88;61.12;98288.09;5045310;28;20083;-67
2021/01/25 04:15:35;;;;;;;25.75;13.77;;;;;;;4.89;60.96;98289.75;5044425;28;20083;-66
2021/01/25 04:18:02;;;;;;;23.80;14.07;;;;;;;4.87;61.19;98288.22;5044952;28;20045;-68
2021/01/25 04:20:30;;;;;;;21.20;13.40;;;;;;;4.88;61.04;98284.63;5045096;28;20098;-69
2021/01/25 04:22:57;;;;;;;21.65;12.18;;;;;;;4.89;60.96;98288.91;5044602;28;20051;-69
2021/01/25 04:25:23;;;;;;;20.83;12.45;;;;;;;4.90;61.25;98290.59;5044879;28;20045;-67
2021/01/25 04:27:50;;;;;;;25.13;12.82;;;;;;;4.92;61.10;98289.50;5045722;28;20064;-71
2021/01/25 04:30:18;;;;;;;22.48;12.48;;;;;;;4.68;61.51;98287.06;5044435;28;20053;-68
2021/01/25 04:32:44;;;;;;;29.45;15.57;;;;;;;4.44;62.54;98289.84;5045560;28;20052;-68
2021/01/25 04:35:13;;;;;;;26.42;13.95;;;;;;;4.35;63.06;98291.38;5044629;28;20045;-68
2021/01/25 04:37:41;;;;;;;26.67;14.40;;;;;;;4.32;62.95;98291.66;5044363;28;20617;-72
2021/01/25 04:40:09;;;;;;;27.45;14.30;;;;;;;4.31;63.08;98294.38;5043469;28;20045;-69
2021/01/25 04:42:37;;;;;;;27.05;15.05;;;;;;;4.31;63.32;98292.59;5045195;28;20049;-69
2021/01/25 04:45:06;;;;;;;23.00;15.68;;;;;;;4.32;63.19;98290.78;5044340;28;20045;-71
2021/01/25 04:47:32;;;;;;;28.23;16.17;;;;;;;4.34;63.09;98294.97;5044738;28;20064;-70
2021/01/25 04:49:59;;;;;;;23.77;15.20;;;;;;;4.35;62.95;98286.16;5044730;28;20056;-67
2021/01/25 04:52:26;;;;;;;27.70;17.58;;;;;;;4.35;63.11;98296.59;5043524;28;20064;-70
2021/01/25 04:54:53;;;;;;;32.90;17.63;;;;;;;4.35;63.15;98295.78;5045328;28;20146;-67
2021/01/25 04:57:21;;;;;;;31.63;17.35;;;;;;;4.29;63.17;98297.09;5044206;28;20044;-69
2021/01/25 04:59:51;;;;;;;24.05;15.38;;;;;;;4.29;63.15;98304.94;5044057;28;20053;-69
2021/01/25 05:02:20;;;;;;;29.52;16.38;;;;;;;4.24;63.30;98299.25;5044503;28;20640;-68
2021/01/25 05:04:47;;;;;;;28.90;18.48;;;;;;;4.21;63.31;98299.47;5044654;28;20045;-68
2021/01/25 05:07:13;;;;;;;59.92;30.60;;;;;;;4.15;63.38;98302.56;5042921;28;20041;-70
2021/01/25 05:09:40;;;;;;;57.90;26.60;;;;;;;4.06;63.31;98304.09;5042177;28;20041;-71
2021/01/25 05:12:07;;;;;;;62.50;30.52;;;;;;;3.99;63.77;98306.34;5043501;28;20049;-70
2021/01/25 05:14:40;;;;;;;30.90;19.80;;;;;;;3.97;63.92;98303.03;5044152;28;20056;-69
2021/01/25 05:17:08;;;;;;;31.52;16.88;;;;;;;3.96;63.66;98305.75;5045145;28;20052;-71
2021/01/25 05:19:36;;;;;;;28.08;16.92;;;;;;;3.94;63.86;98308.50;5044142;28;20045;-72
2021/01/25 05:22:08;;;;;;;31.02;17.98;;;;;;;3.89;63.98;98302.78;5044250;28;20052;-68
2021/01/25 05:24:44;;;;;;;27.00;16.00;;;;;;;3.90;64.02;98304.44;5044736;28;20098;-68
2021/01/25 05:27:10;;;;;;;23.98;14.18;;;;;;;3.99;63.63;98302.91;5044676;28;20052;-69
2021/01/25 05:29:36;;;;;;;23.02;14.02;;;;;;;4.03;63.61;98309.56;5044055;28;20052;-67
2021/01/25 05:32:09;;;;;;;25.30;13.90;;;;;;;4.08;63.75;98314.44;5044161;28;20664;-66
2021/01/25 05:34:36;;;;;;;26.15;14.23;;;;;;;4.08;63.71;98304.81;5043622;28;20120;-66
2021/01/25 05:37:02;;;;;;;23.52;15.00;;;;;;;4.06;63.71;98308.50;5044202;28;20094;-68
2021/01/25 05:39:32;;;;;;;32.17;17.85;;;;;;;3.99;63.86;98321.19;5043570;28;20045;-69
2021/01/25 05:42:00;;;;;;;28.52;15.88;;;;;;;3.94;63.92;98311.13;5043799;28;20045;-73
2021/01/25 05:44:27;;;;;;;34.85;17.98;;;;;;;3.92;64.20;98315.59;5045086;28;20045;-71
2021/01/25 05:47:04;;;;;;;29.88;19.00;;;;;;;3.88;64.01;98314.19;5046691;28;20053;-70
2021/01/25 05:49:30;;;;;;;28.38;17.45;;;;;;;3.85;63.81;98318.81;5045110;28;20053;-70
2021/01/25 05:51:57;;;;;;;31.83;19.90;;;;;;;3.81;64.30;98315.59;5047834;28;20068;-68
2021/01/25 05:54:25;;;;;;;33.17;20.55;;;;;;;3.75;64.32;98313.47;5047117;28;20197;-68
2021/01/25 05:56:52;;;;;;;37.38;21.27;;;;;;;3.69;64.47;98311.28;5049196;28;20057;-69
2021/01/25 05:59:19;;;;;;;32.78;22.00;;;;;;;3.63;64.66;98316.03;5048865;28;20052;-70
2021/01/25 06:01:47;;;;;;;37.60;20.70;;;;;;;3.70;64.47;98312.97;5047776;28;20092;-72
2021/01/25 06:04:17;;;;;;;37.33;22.85;;;;;;;3.59;64.73;98314.59;5048609;28;20045;-71
2021/01/25 06:06:49;;;;;;;44.58;26.17;;;;;;;3.57;64.98;98310.44;5049163;28;20051;-71
2021/01/25 06:09:23;;;;;;;39.85;25.25;;;;;;;3.61;64.75;98320.53;5044567;28;20055;-69
2021/01/25 06:11:49;;;;;;;43.63;25.38;;;;;;;3.60;64.96;98321.50;5046840;28;20084;-73
2021/01/25 06:14:22;;;;;;;37.88;23.00;;;;;;;3.60;64.74;98324.09;5049388;28;20045;-71
2021/01/25 06:16:50;;;;;;;36.88;24.13;;;;;;;3.54;64.53;98324.53;5047958;28;20094;-71
2021/01/25 06:19:20;;;;;;;35.50;20.00;;;;;;;3.57;64.61;98320.88;5048749;28;20045;-73
2021/01/25 06:21:49;;;;;;;36.30;21.70;;;;;;;3.63;64.60;98336.91;5046311;28;20048;-68
2021/01/25 06:24:17;;;;;;;33.38;18.20;;;;;;;3.68;64.45;98333.16;5044867;28;20055;-74
2021/01/25 06:26:48;;;;;;;33.05;18.05;;;;;;;3.72;64.25;98331.97;5046539;28;20053;-70
2021/01/25 06:29:18;;;;;;;33.83;20.70;;;;;;;3.74;64.16;98338.72;5045668;28;20172;-70
2021/01/25 06:31:45;;;;;;;35.33;21.65;;;;;;;3.68;64.11;98335.75;5043164;28;20041;-69
2021/01/25 06:34:14;;;;;;;44.03;24.92;;;;;;;3.68;63.98;98341.78;5046244;28;20085;-69
2021/01/25 06:36:42;;;;;;;28.05;16.98;;;;;;;3.70;63.79;98342.50;5045263;28;20049;-71
2021/01/25 06:39:09;;;;;;;40.40;23.85;;;;;;;3.72;63.87;98335.38;5043699;28;20049;-70
2021/01/25 06:41:37;;;;;;;44.70;22.35;;;;;;;3.72;63.99;98334.56;5042567;28;20663;-70
2021/01/25 06:44:06;;;;;;;58.70;29.95;;;;;;;3.77;63.78;98348.13;5042975;28;20055;-70
2021/01/25 06:46:34;;;;;;;63.80;36.65;;;;;;;3.74;64.07;98341.31;5042552;28;20053;-70
2021/01/25 06:49:01;;;;;;;38.63;22.38;;;;;;;3.74;63.98;98350.94;5040133;28;20133;-70
2021/01/25 06:51:29;;;;;;;46.72;25.33;;;;;;;3.72;64.05;98355.44;5040127;28;20067;-71
2021/01/25 06:54:00;;;;;;;77.60;36.42;;;;;;;3.74;64.08;98350.94;5039874;28;20053;-70
2021/01/25 06:56:27;;;;;;;62.28;34.50;;;;;;;3.77;63.86;98351.53;5021983;28;20153;-70
2021/01/25 06:58:54;;;;;;;74.25;35.35;;;;;;;3.83;63.93;98355.47;5038278;28;20384;-70
2021/01/25 07:01:23;;;;;;;72.85;33.97;;;;;;;3.89;63.75;98354.19;5038208;28;20045;-71
2021/01/25 07:03:56;;;;;;;54.72;32.50;;;;;;;3.90;63.71;98363.69;5039792;28;20055;-69
2021/01/25 07:06:23;;;;;;;49.00;25.48;;;;;;;3.89;63.58;98367.22;5040055;28;20087;-69
2021/01/25 07:08:56;;;;;;;43.15;24.95;;;;;;;3.88;63.48;98370.81;5039000;28;20049;-69
2021/01/25 07:11:26;;;;;;;41.63;23.45;;;;;;;3.92;63.46;98369.63;5040614;28;20059;-70
2021/01/25 07:13:53;;;;;;;43.45;25.75;;;;;;;3.91;63.42;98366.19;5038918;28;20049;-70
2021/01/25 07:16:23;;;;;;;50.50;29.85;;;;;;;3.90;63.41;98374.13;5039712;28;20638;-69
2021/01/25 07:18:52;;;;;;;39.15;23.17;;;;;;;3.89;63.55;98377.69;5041619;28;20055;-71
2021/01/25 07:21:19;;;;;;;35.50;21.35;;;;;;;3.88;63.44;98374.25;5041721;28;20096;-69
2021/01/25 07:23:48;;;;;;;38.85;22.42;;;;;;;3.90;63.46;98382.78;5039722;28;20053;-69
2021/01/25 07:26:17;;;;;;;38.40;22.48;;;;;;;3.93;63.11;98373.91;5039407;28;20045;-70
2021/01/25 07:28:44;;;;;;;37.65;22.77;;;;;;;3.91;63.03;98370.59;5039491;28;20045;-70
2021/01/25 07:31:11;;;;;;;39.13;24.98;;;;;;;3.90;63.25;98368.91;5039640;28;20048;-72
2021/01/25 07:33:38;;;;;;;30.13;19.48;;;;;;;3.90;63.39;98368.91;5038851;28;20055;-69
2021/01/25 07:36:06;;;;;;;48.35;25.55;;;;;;;3.94;63.23;98362.50;5038059;28;20049;-69
2021/01/25 07:38:33;;;;;;;42.15;24.48;;;;;;;3.98;63.10;98362.16;5037787;28;20123;-70
2021/01/25 07:41:00;;;;;;;36.22;18.30;;;;;;;4.04;63.04;98360.03;5035188;28;20056;-70
2021/01/25 07:43:29;;;;;;;26.02;15.27;;;;;;;4.09;62.68;98363.09;5038598;28;20122;-70
2021/01/25 07:46:04;;;;;;;29.17;19.17;;;;;;;4.04;62.85;98360.03;5037877;28;20083;-71
2021/01/25 07:48:31;;;;;;;30.23;16.35;;;;;;;4.09;62.80;98365.72;5038708;28;20048;-72
2021/01/25 07:50:58;;;;;;;30.70;19.08;;;;;;;4.05;62.73;98372.13;5036479;28;20048;-69
2021/01/25 07:53:26;;;;;;;25.75;15.98;;;;;;;4.03;62.80;98369.63;5036730;28;20041;-71
2021/01/25 07:55:53;;;;;;;30.95;16.02;;;;;;;4.06;62.88;98373.81;5037330;28;20686;-71
2021/01/25 07:58:19;;;;;;;32.60;18.80;;;;;;;4.08;62.86;98369.31;5036563;28;20614;-71
2021/01/25 08:00:45;;;;;;;32.40;18.20;;;;;;;4.10;62.55;98367.41;5038438;28;20049;-71
2021/01/25 08:03:19;;;;;;;41.65;21.25;;;;;;;4.11;62.71;98371.69;5019899;28;20049;-73
2021/01/25 08:05:50;;;;;;;36.80;21.10;;;;;;;4.10;62.79;98375.25;5038280;28;20117;-70
2021/01/25 08:08:17;;;;;;;39.17;20.67;;;;;;;4.07;62.57;98380.69;5038669;28;20071;-71
2021/01/25 08:10:45;;;;;;;35.10;23.42;;;;;;;4.03;62.81;98369.63;5038452;28;20053;-70
2021/01/25 08:13:15;;;;;;;34.88;21.73;;;;;;;4.03;62.79;98380.09;5039397;28;20107;-70
2021/01/25 08:15:51;;;;;;;34.60;20.52;;;;;;;4.00;62.87;98381.16;5038358;28;20049;-70
2021/01/25 08:18:23;;;;;;;34.80;21.52;;;;;;;3.94;62.84;98381.63;5039724;28;20164;-71
2021/01/25 08:20:50;;;;;;;29.77;18.02;;;;;;;3.90;62.93;98377.56;5037826;28;20053;-70
2021/01/25 08:23:21;;;;;;;32.15;21.50;;;;;;;3.89;63.15;98388.97;5039124;28;20049;-70
2021/01/25 08:25:55;;;;;;;33.58;18.73;;;;;;;3.91;62.91;98381.03;5041070;28;20045;-70
2021/01/25 08:28:23;;;;;;;30.73;18.58;;;;;;;3.90;62.93;98376.75;5038647;28;20041;-70
2021/01/25 08:30:52;;;;;;;35.70;23.10;;;;;;;3.92;62.76;98382.69;5037901;28;20084;-72
2021/01/25 08:33:31;;;;;;;40.03;23.58;;;;;;;3.92;63.19;98383.50;5039200;28;20044;-70
2021/01/25 08:35:59;;;;;;;38.63;25.58;;;;;;;3.98;63.08;98382.22;5037037;28;20048;-70
2021/01/25 08:38:29;;;;;;;46.15;28.13;;;;;;;4.00;62.85;98373.31;5038658;28;20055;-70
2021/01/25 08:40:57;;;;;;;47.45;27.80;;;;;;;4.02;63.08;98368.81;5035370;28;20600;-71
2021/01/25 08:43:27;;;;;;;45.13;27.40;;;;;;;4.02;63.03;98375.81;5036108;28;20110;-70
2021/01/25 08:46:07;;;;;;;48.22;30.33;;;;;;;4.08;62.82;98377.97;5037352;28;20045;-70
2021/01/25 08:48:34;;;;;;;50.60;28.67;;;;;;;4.12;62.82;98373.34;5036463;28;20748;-69
2021/01/25 08:51:10;;;;;;;54.13;30.63;;;;;;;4.12;63.00;98374.16;5036432;28;20061;-72
2021/01/25 08:53:37;;;;;;;50.35;29.02;;;;;;;4.07;62.93;98373.69;5036372;28;20044;-71
2021/01/25 08:56:13;;;;;;;50.65;28.75;;;;;;;4.00;63.28;98375.94;5034509;28;20053;-71
2021/01/25 08:58:40;;;;;;;51.60;30.90;;;;;;;3.91;63.33;98374.03;5035581;28;20076;-69
2021/01/25 09:01:16;;;;;;;43.97;24.80;;;;;;;3.98;63.34;98371.75;5036373;28;20053;-72
2021/01/25 09:03:43;;;;;;;49.47;27.58;;;;;;;3.97;63.31;98376.16;5034189;28;20057;-72
2021/01/25 09:06:10;;;;;;;40.10;24.65;;;;;;;3.98;63.50;98380.44;5036035;28;20067;-70
2021/01/25 09:08:37;;;;;;;50.35;25.90;;;;;;;4.01;63.53;98388.03;5036056;28;20136;-70
2021/01/25 09:11:04;;;;;;;46.90;23.25;;;;;;;4.09;63.54;98384.88;5033190;28;20731;-70
2021/01/25 09:13:30;;;;;;;37.90;23.88;;;;;;;4.13;63.22;98385.47;5034399;28;20045;-70
2021/01/25 09:15:56;;;;;;;46.40;27.73;;;;;;;4.09;63.09;98384.88;5035974;28;20048;-70
2021/01/25 09:18:24;;;;;;;41.70;25.80;;;;;;;3.97;63.70;98394.44;5036371;28;20063;-71
2021/01/25 09:20:50;;;;;;;35.08;21.90;;;;;;;3.99;63.52;98397.78;5036352;28;20049;-73
2021/01/25 09:23:18;;;;;;;47.75;27.83;;;;;;;3.95;63.76;98396.34;5039849;28;20045;-70
2021/01/25 09:25:45;;;;;;;48.28;30.27;;;;;;;3.93;63.95;98400.84;5037462;28;20045;-70
2021/01/25 09:28:11;;;;;;;53.40;33.28;;;;;;;3.89;63.99;98398.56;5038403;28;20045;-70
2021/01/25 09:30:38;;;;;;;50.67;31.38;;;;;;;3.87;64.20;98403.94;5038022;28;20057;-72
2021/01/25 09:33:05;;;;;;;60.13;33.72;;;;;;;3.90;64.09;98411.53;5038400;28;20053;-71
2021/01/25 09:35:33;;;;;;;57.42;35.22;;;;;;;3.96;64.28;98399.78;5037247;28;20719;-70
2021/01/25 09:38:01;;;;;;;44.63;29.27;;;;;;;3.91;64.09;98400.16;5001763;28;20059;-72
2021/01/25 09:40:31;;;;;;;48.88;30.92;;;;;;;3.88;64.51;98402.16;5036076;28;20148;-71
2021/01/25 09:43:00;;;;;;;48.35;26.08;;;;;;;3.92;64.36;98407.00;5020527;28;20052;-69
2021/01/25 09:45:28;;;;;;;47.47;27.80;;;;;;;3.89;64.30;98409.88;5036392;28;20075;-70
2021/01/25 09:47:56;;;;;;;43.47;25.38;;;;;;;3.91;64.47;98412.38;5036551;28;20124;-70
2021/01/25 09:50:23;;;;;;;45.90;26.67;;;;;;;3.93;64.42;98407.88;5037645;28;20084;-71
2021/01/25 09:52:50;;;;;;;48.05;28.05;;;;;;;3.93;64.37;98400.84;5036061;28;20048;-70
2021/01/25 09:55:18;;;;;;;52.35;28.40;;;;;;;3.95;64.56;98412.00;5035620;28;20103;-69
2021/01/25 09:57:45;;;;;;;54.88;29.40;;;;;;;3.97;64.64;98407.50;5037187;28;20048;-71
2021/01/25 10:00:13;;;;;;;50.50;29.90;;;;;;;4.00;64.57;98417.72;5036951;28;20045;-70
2021/01/25 10:02:39;;;;;;;45.13;27.67;;;;;;;4.00;64.72;98414.31;5036551;28;20049;-70
2021/01/25 10:05:07;;;;;;;48.28;28.20;;;;;;;4.02;64.52;98418.44;5037285;28;20110;-68
2021/01/25 10:07:35;;;;;;;44.70;26.35;;;;;;;4.08;64.38;98426.78;5037196;28;20045;-70
2021/01/25 10:10:05;;;;;;;44.90;27.05;;;;;;;4.08;64.47;98422.38;5033447;28;20164;-69
2021/01/25 10:12:31;;;;;;;60.10;35.25;;;;;;;4.12;64.32;98425.59;5036994;28;20047;-70
2021/01/25 10:14:58;;;;;;;48.35;30.77;;;;;;;4.06;64.67;98415.63;5035570;28;20041;-71
2021/01/25 10:17:24;;;;;;;61.28;36.97;;;;;;;4.03;64.58;98411.44;5035044;28;20049;-71
2021/01/25 10:19:51;;;;;;;50.80;30.58;;;;;;;4.05;64.40;98408.72;5036799;28;20075;-70
2021/01/25 10:22:17;;;;;;;55.20;32.65;;;;;;;3.97;64.69;98407.50;5035965;28;20069;-71
2021/01/25 10:24:45;;;;;;;48.08;33.28;;;;;;;3.86;65.13;98411.88;5033982;28;20497;-70
2021/01/25 10:27:13;;;;;;;48.20;31.98;;;;;;;3.82;65.40;98419.13;5033808;28;20056;-74
2021/01/25 10:29:39;;;;;;;51.15;29.83;;;;;;;3.79;65.41;98414.94;5035873;28;20107;-72
2021/01/25 10:32:06;;;;;;;45.90;29.90;;;;;;;3.77;65.78;98410.78;5033855;28;20102;-69
2021/01/25 10:34:33;;;;;;;35.60;25.52;;;;;;;3.72;65.75;98416.34;5037058;28;20045;-69
2021/01/25 10:37:00;;;;;;;44.38;26.67;;;;;;;3.74;65.93;98411.00;5002386;28;20110;-68
2021/01/25 10:39:26;;;;;;;48.80;29.25;;;;;;;3.69;66.26;98408.75;5035337;28;20049;-69
2021/01/25 10:41:53;;;;;;;42.08;22.52;;;;;;;3.70;66.40;98406.97;5019158;28;20137;-70
2021/01/25 10:44:20;;;;;;;40.90;25.73;;;;;;;3.69;66.49;98400.06;5036731;28;20425;-70
2021/01/25 10:46:46;;;;;;;41.00;26.80;;;;;;;3.57;66.69;98394.81;5037081;28;20041;-70
2021/01/25 10:49:13;;;;;;;49.53;29.33;;;;;;;3.63;66.63;98396.94;5036242;28;20120;-70
2021/01/25 10:51:40;;;;;;;49.58;27.95;;;;;;;3.65;66.86;98399.44;5040606;28;20186;-69
2021/01/25 10:54:06;;;;;;;51.15;29.25;;;;;;;3.69;66.65;98397.44;5036413;28;20542;-70
2021/01/25 10:56:32;;;;;;;49.10;32.33;;;;;;;3.62;66.78;98402.31;5035914;28;20107;-70
2021/01/25 10:58:59;;;;;;;49.63;30.77;;;;;;;3.57;66.86;98399.19;5037016;28;20593;-70
2021/01/25 11:01:26;;;;;;;54.72;35.10;;;;;;;3.56;67.07;98397.53;5035956;28;20045;-70
2021/01/25 11:03:53;;;;;;;54.45;31.08;;;;;;;3.61;66.76;98401.47;5036880;28;20060;-72
2021/01/25 11:06:21;;;;;;;45.55;29.75;;;;;;;3.59;66.89;98403.34;5035875;28;20079;-71
2021/01/25 11:08:47;;;;;;;53.17;34.90;;;;;;;3.64;66.86;98405.63;5037206;28;20068;-70
2021/01/25 11:11:13;;;;;;;42.17;23.77;;;;;;;3.70;66.92;98402.56;5017699;28;20136;-69
2021/01/25 11:13:41;;;;;;;46.67;29.38;;;;;;;3.64;66.91;98401.25;5018252;28;20520;-71
2021/01/25 11:16:08;;;;;;;47.38;27.30;;;;;;;3.64;66.88;98405.63;5037393;28;20373;-70
2021/01/25 11:18:36;;;;;;;47.10;27.83;;;;;;;3.71;66.50;98390.34;5038456;28;20685;-70
2021/01/25 11:21:02;;;;;;;53.60;31.88;;;;;;;3.68;66.55;98396.63;5037054;28;20049;-70
2021/01/25 11:23:29;;;;;;;44.97;30.75;;;;;;;3.70;66.62;98393.91;5038188;28;20049;-71
2021/01/25 11:25:55;;;;;;;56.30;32.63;;;;;;;3.62;66.76;98392.69;5037224;28;20130;-70
2021/01/25 11:28:22;;;;;;;44.78;28.52;;;;;;;3.66;66.66;98392.47;5019867;28;20513;-70